Strona główna
METAR-TAF:

METAR-TAF

Lotnisko :

Port lotniczy Loei

Loei, Tajlandia

Szerokość geograficzna: 17-27N, Długość geograficzna: 101-44E, wysokość: 253 m

Aktualna obserwacja pogody

Raport powstał 9 godziny i 15 minut temu, godzina 12:00 UTC
Cisza
Temperatura 28°C
Wilgotność 74%
Ciśnienie 1011 hPa
Widzialność 10 km lub więcej
Przerywane chmury na wysokości 3000 ft

METAR: VTUL 101200Z 00000KT 9999 BKN030 28/23 Q1011 NOSIG

czas: 04:15 (21:15 UTC)

Prognoza

Raport powstał 4 godziny i 15 minut temu, godzina 17:00 UTC
Prognoza ważna od 10 godzina 18 UTC do 11 godzina 18 UTC
Wiatr 5 kt od południowo-południowy wschód
Widzialność: 9000 m
Przerywane chmury na wysokości 3000 ft

TAF: VTUL 101700Z 1018/1118 15005KT 9000 BKN030

Obserwacja i prognoza pogody dla ponad 4000 lotnisk (raport METAR i TAF).

Dostępne stacje oznaczono żółtymi i czerwonymi punktami na mapie.

Najedź kursorem aby zobaczyć nazwę stacji.

Kliknij aby zobaczyć obserwacje i prognozy pogody.

Aby zmienić mapę: kliknij na zielony przycisk z czarnym krzyżykiem, aby powiększyć; na zielony przycisk z myślnikiem, aby pomniejszyć; na zielone strzałki, aby przejść do map sąsiednich.


METAR-TAF: